sensor_id;sensor_type;location;lat;lon;timestamp;temperature;humidity
39315;DHT22;28703;44.412;11.918;2023-04-03T00:00:16;10.80;99.90
39315;DHT22;28703;44.412;11.918;2023-04-03T00:02:42;10.80;99.90
39315;DHT22;28703;44.412;11.918;2023-04-03T00:05:10;10.80;99.90
39315;DHT22;28703;44.412;11.918;2023-04-03T00:07:37;10.80;99.90
39315;DHT22;28703;44.412;11.918;2023-04-03T00:10:03;10.70;99.90
39315;DHT22;28703;44.412;11.918;2023-04-03T00:12:29;10.70;99.90
39315;DHT22;28703;44.412;11.918;2023-04-03T00:14:55;10.60;99.90
39315;DHT22;28703;44.412;11.918;2023-04-03T00:17:20;10.60;99.90
39315;DHT22;28703;44.412;11.918;2023-04-03T00:19:49;10.60;99.90
39315;DHT22;28703;44.412;11.918;2023-04-03T00:22:18;10.60;99.90
39315;DHT22;28703;44.412;11.918;2023-04-03T00:24:44;10.50;99.90
39315;DHT22;28703;44.412;11.918;2023-04-03T00:27:10;10.50;99.90
39315;DHT22;28703;44.412;11.918;2023-04-03T00:29:36;10.40;99.90
39315;DHT22;28703;44.412;11.918;2023-04-03T00:32:02;10.30;99.90
39315;DHT22;28703;44.412;11.918;2023-04-03T00:34:28;10.30;99.90
39315;DHT22;28703;44.412;11.918;2023-04-03T00:36:54;10.30;99.90
39315;DHT22;28703;44.412;11.918;2023-04-03T00:39:21;10.30;99.90
39315;DHT22;28703;44.412;11.918;2023-04-03T00:41:46;10.30;99.90
39315;DHT22;28703;44.412;11.918;2023-04-03T00:45:21;10.30;99.90
39315;DHT22;28703;44.412;11.918;2023-04-03T00:47:07;10.30;99.90
39315;DHT22;28703;44.412;11.918;2023-04-03T00:49:34;10.30;99.90
39315;DHT22;28703;44.412;11.918;2023-04-03T00:52:00;10.30;99.90
39315;DHT22;28703;44.412;11.918;2023-04-03T00:54:27;10.40;99.90
39315;DHT22;28703;44.412;11.918;2023-04-03T00:56:53;10.40;99.90
39315;DHT22;28703;44.412;11.918;2023-04-03T00:59:24;10.40;99.90
39315;DHT22;28703;44.412;11.918;2023-04-03T01:01:52;10.40;99.90
39315;DHT22;28703;44.412;11.918;2023-04-03T01:07:00;10.40;99.90
39315;DHT22;28703;44.412;11.918;2023-04-03T01:09:27;10.50;99.90
39315;DHT22;28703;44.412;11.918;2023-04-03T01:12:16;10.50;99.90
39315;DHT22;28703;44.412;11.918;2023-04-03T01:14:43;10.50;99.90
39315;DHT22;28703;44.412;11.918;2023-04-03T01:25:10;10.60;99.90
39315;DHT22;28703;44.412;11.918;2023-04-03T01:27:36;10.60;99.90
39315;DHT22;28703;44.412;11.918;2023-04-03T01:30:02;10.70;99.90
39315;DHT22;28703;44.412;11.918;2023-04-03T01:32:28;10.70;99.90
39315;DHT22;28703;44.412;11.918;2023-04-03T01:34:54;10.70;99.90
39315;DHT22;28703;44.412;11.918;2023-04-03T01:37:23;10.80;99.90
39315;DHT22;28703;44.412;11.918;2023-04-03T01:39:49;10.70;99.90
39315;DHT22;28703;44.412;11.918;2023-04-03T01:42:15;10.80;99.90
39315;DHT22;28703;44.412;11.918;2023-04-03T01:44:43;10.80;99.90
39315;DHT22;28703;44.412;11.918;2023-04-03T01:47:10;10.80;99.90
39315;DHT22;28703;44.412;11.918;2023-04-03T01:49:37;10.70;99.90
39315;DHT22;28703;44.412;11.918;2023-04-03T01:52:04;10.70;99.90
39315;DHT22;28703;44.412;11.918;2023-04-03T01:54:32;10.70;99.90
39315;DHT22;28703;44.412;11.918;2023-04-03T01:56:58;10.60;99.90
39315;DHT22;28703;44.412;11.918;2023-04-03T01:59:24;10.60;99.90
39315;DHT22;28703;44.412;11.918;2023-04-03T02:01:52;10.60;99.90
39315;DHT22;28703;44.412;11.918;2023-04-03T02:04:18;10.50;99.90
39315;DHT22;28703;44.412;11.918;2023-04-03T02:06:47;10.40;99.90
39315;DHT22;28703;44.412;11.918;2023-04-03T02:09:13;10.40;99.90
39315;DHT22;28703;44.412;11.918;2023-04-03T02:11:39;10.50;99.90
39315;DHT22;28703;44.412;11.918;2023-04-03T02:14:07;10.50;99.90
39315;DHT22;28703;44.412;11.918;2023-04-03T02:16:33;10.50;99.90
39315;DHT22;28703;44.412;11.918;2023-04-03T02:18:59;10.50;99.90
39315;DHT22;28703;44.412;11.918;2023-04-03T02:21:25;10.50;99.90
39315;DHT22;28703;44.412;11.918;2023-04-03T02:23:56;10.50;99.90
39315;DHT22;28703;44.412;11.918;2023-04-03T02:26:23;10.50;99.90
39315;DHT22;28703;44.412;11.918;2023-04-03T02:28:48;10.50;99.90
39315;DHT22;28703;44.412;11.918;2023-04-03T02:31:20;10.60;99.90
39315;DHT22;28703;44.412;11.918;2023-04-03T02:33:50;10.60;99.90
39315;DHT22;28703;44.412;11.918;2023-04-03T02:36:23;10.60;99.90
39315;DHT22;28703;44.412;11.918;2023-04-03T02:38:56;10.60;99.90
39315;DHT22;28703;44.412;11.918;2023-04-03T02:41:21;10.60;99.90
39315;DHT22;28703;44.412;11.918;2023-04-03T02:43:48;10.60;99.90
39315;DHT22;28703;44.412;11.918;2023-04-03T02:46:15;10.50;99.90
39315;DHT22;28703;44.412;11.918;2023-04-03T02:48:41;10.60;99.90
39315;DHT22;28703;44.412;11.918;2023-04-03T02:51:07;10.50;99.90
39315;DHT22;28703;44.412;11.918;2023-04-03T02:53:33;10.50;99.90
39315;DHT22;28703;44.412;11.918;2023-04-03T02:56:05;10.40;99.90
39315;DHT22;28703;44.412;11.918;2023-04-03T02:58:31;10.50;99.90
39315;DHT22;28703;44.412;11.918;2023-04-03T03:00:58;10.40;99.90
39315;DHT22;28703;44.412;11.918;2023-04-03T03:03:24;10.50;99.90
39315;DHT22;28703;44.412;11.918;2023-04-03T03:06:00;10.40;99.90
39315;DHT22;28703;44.412;11.918;2023-04-03T03:08:26;10.40;99.90
39315;DHT22;28703;44.412;11.918;2023-04-03T03:10:53;10.30;99.90
39315;DHT22;28703;44.412;11.918;2023-04-03T03:13:18;10.30;99.90
39315;DHT22;28703;44.412;11.918;2023-04-03T03:15:44;10.30;99.90
39315;DHT22;28703;44.412;11.918;2023-04-03T03:18:10;10.30;99.90
39315;DHT22;28703;44.412;11.918;2023-04-03T03:20:36;10.30;99.90
39315;DHT22;28703;44.412;11.918;2023-04-03T03:23:02;10.30;99.90
39315;DHT22;28703;44.412;11.918;2023-04-03T03:25:27;10.30;99.90
39315;DHT22;28703;44.412;11.918;2023-04-03T03:27:53;10.30;99.90
39315;DHT22;28703;44.412;11.918;2023-04-03T03:30:19;10.40;99.90
39315;DHT22;28703;44.412;11.918;2023-04-03T03:32:46;10.40;99.90
39315;DHT22;28703;44.412;11.918;2023-04-03T03:35:12;10.40;99.90
39315;DHT22;28703;44.412;11.918;2023-04-03T03:37:37;10.30;99.90
39315;DHT22;28703;44.412;11.918;2023-04-03T03:40:03;10.40;99.90
39315;DHT22;28703;44.412;11.918;2023-04-03T03:42:30;10.40;99.90
39315;DHT22;28703;44.412;11.918;2023-04-03T03:44:56;10.40;99.90
39315;DHT22;28703;44.412;11.918;2023-04-03T03:47:22;10.40;99.90
39315;DHT22;28703;44.412;11.918;2023-04-03T03:49:48;10.50;99.90
39315;DHT22;28703;44.412;11.918;2023-04-03T03:52:14;10.50;99.90
39315;DHT22;28703;44.412;11.918;2023-04-03T03:54:40;10.50;99.90
39315;DHT22;28703;44.412;11.918;2023-04-03T03:57:06;10.50;99.90
39315;DHT22;28703;44.412;11.918;2023-04-03T03:59:32;10.50;99.90
39315;DHT22;28703;44.412;11.918;2023-04-03T04:01:58;10.50;99.90
39315;DHT22;28703;44.412;11.918;2023-04-03T04:04:24;10.40;99.90
39315;DHT22;28703;44.412;11.918;2023-04-03T04:06:50;10.40;99.90
39315;DHT22;28703;44.412;11.918;2023-04-03T04:09:16;10.40;99.90
39315;DHT22;28703;44.412;11.918;2023-04-03T04:11:42;10.40;99.90
39315;DHT22;28703;44.412;11.918;2023-04-03T04:14:11;10.40;99.90
39315;DHT22;28703;44.412;11.918;2023-04-03T04:16:40;10.40;99.90
39315;DHT22;28703;44.412;11.918;2023-04-03T04:19:11;10.40;99.90
39315;DHT22;28703;44.412;11.918;2023-04-03T04:21:42;10.40;99.90
39315;DHT22;28703;44.412;11.918;2023-04-03T04:24:11;10.40;99.90
39315;DHT22;28703;44.412;11.918;2023-04-03T04:26:37;10.40;99.90
39315;DHT22;28703;44.412;11.918;2023-04-03T04:29:04;10.40;99.90
39315;DHT22;28703;44.412;11.918;2023-04-03T04:31:33;10.50;99.90
39315;DHT22;28703;44.412;11.918;2023-04-03T04:33:59;10.50;99.90
39315;DHT22;28703;44.412;11.918;2023-04-03T04:36:28;10.50;99.90
39315;DHT22;28703;44.412;11.918;2023-04-03T04:38:55;10.50;99.90
39315;DHT22;28703;44.412;11.918;2023-04-03T04:41:26;10.50;99.90
39315;DHT22;28703;44.412;11.918;2023-04-03T04:43:52;10.50;99.90
39315;DHT22;28703;44.412;11.918;2023-04-03T04:46:18;10.50;99.90
39315;DHT22;28703;44.412;11.918;2023-04-03T04:48:58;10.50;99.90
39315;DHT22;28703;44.412;11.918;2023-04-03T04:51:27;10.50;99.90
39315;DHT22;28703;44.412;11.918;2023-04-03T04:53:57;10.50;99.90
39315;DHT22;28703;44.412;11.918;2023-04-03T04:56:36;10.50;99.90
39315;DHT22;28703;44.412;11.918;2023-04-03T04:59:03;10.50;99.90
39315;DHT22;28703;44.412;11.918;2023-04-03T05:01:30;10.50;99.90
39315;DHT22;28703;44.412;11.918;2023-04-03T05:04:11;10.50;99.90
39315;DHT22;28703;44.412;11.918;2023-04-03T05:06:41;10.40;99.90
39315;DHT22;28703;44.412;11.918;2023-04-03T05:09:14;10.50;99.90
39315;DHT22;28703;44.412;11.918;2023-04-03T05:11:44;10.50;99.90
39315;DHT22;28703;44.412;11.918;2023-04-03T05:14:15;10.50;99.90
39315;DHT22;28703;44.412;11.918;2023-04-03T05:16:41;10.50;99.90
39315;DHT22;28703;44.412;11.918;2023-04-03T05:19:07;10.50;99.90
39315;DHT22;28703;44.412;11.918;2023-04-03T05:21:33;10.50;99.90
39315;DHT22;28703;44.412;11.918;2023-04-03T05:24:08;10.50;99.90
39315;DHT22;28703;44.412;11.918;2023-04-03T05:26:37;10.60;99.90
39315;DHT22;28703;44.412;11.918;2023-04-03T05:29:05;10.60;99.90
39315;DHT22;28703;44.412;11.918;2023-04-03T05:31:31;10.60;99.90
39315;DHT22;28703;44.412;11.918;2023-04-03T05:33:59;10.60;99.90
39315;DHT22;28703;44.412;11.918;2023-04-03T05:36:27;10.60;99.90
39315;DHT22;28703;44.412;11.918;2023-04-03T05:38:59;10.70;99.90
39315;DHT22;28703;44.412;11.918;2023-04-03T05:41:25;10.60;99.90
39315;DHT22;28703;44.412;11.918;2023-04-03T05:43:53;10.70;99.90
39315;DHT22;28703;44.412;11.918;2023-04-03T05:46:21;10.70;99.90
39315;DHT22;28703;44.412;11.918;2023-04-03T05:48:51;10.70;99.90
39315;DHT22;28703;44.412;11.918;2023-04-03T05:51:25;10.70;99.90
39315;DHT22;28703;44.412;11.918;2023-04-03T05:54:08;10.70;99.90
39315;DHT22;28703;44.412;11.918;2023-04-03T05:56:41;10.70;99.90
39315;DHT22;28703;44.412;11.918;2023-04-03T05:59:08;10.80;99.90
39315;DHT22;28703;44.412;11.918;2023-04-03T06:01:34;10.80;99.90
39315;DHT22;28703;44.412;11.918;2023-04-03T06:04:00;10.80;99.90
39315;DHT22;28703;44.412;11.918;2023-04-03T06:06:42;10.80;99.90
39315;DHT22;28703;44.412;11.918;2023-04-03T06:11:55;10.90;99.90
39315;DHT22;28703;44.412;11.918;2023-04-03T06:14:25;11.00;99.90
39315;DHT22;28703;44.412;11.918;2023-04-03T06:16:51;11.00;99.90
39315;DHT22;28703;44.412;11.918;2023-04-03T06:19:17;11.10;99.90
39315;DHT22;28703;44.412;11.918;2023-04-03T06:21:50;11.10;99.90
39315;DHT22;28703;44.412;11.918;2023-04-03T06:24:17;11.20;99.90
39315;DHT22;28703;44.412;11.918;2023-04-03T06:26:43;11.30;99.90
39315;DHT22;28703;44.412;11.918;2023-04-03T06:29:09;11.30;99.90
39315;DHT22;28703;44.412;11.918;2023-04-03T06:31:35;11.40;99.90
39315;DHT22;28703;44.412;11.918;2023-04-03T06:34:03;11.40;99.90
39315;DHT22;28703;44.412;11.918;2023-04-03T06:36:29;11.50;99.90
39315;DHT22;28703;44.412;11.918;2023-04-03T06:38:55;11.50;99.90
39315;DHT22;28703;44.412;11.918;2023-04-03T06:41:26;11.60;99.90
39315;DHT22;28703;44.412;11.918;2023-04-03T06:44:05;11.60;99.90
39315;DHT22;28703;44.412;11.918;2023-04-03T06:46:34;11.70;99.90
39315;DHT22;28703;44.412;11.918;2023-04-03T06:49:00;11.70;99.90
39315;DHT22;28703;44.412;11.918;2023-04-03T06:51:28;11.70;99.90
39315;DHT22;28703;44.412;11.918;2023-04-03T06:53:56;11.80;99.90
39315;DHT22;28703;44.412;11.918;2023-04-03T06:56:22;11.80;99.90
39315;DHT22;28703;44.412;11.918;2023-04-03T06:58:48;11.90;99.90
39315;DHT22;28703;44.412;11.918;2023-04-03T07:01:15;11.90;99.90
39315;DHT22;28703;44.412;11.918;2023-04-03T07:03:42;12.00;99.90
39315;DHT22;28703;44.412;11.918;2023-04-03T07:06:09;12.10;99.90
39315;DHT22;28703;44.412;11.918;2023-04-03T07:08:39;12.20;99.90
39315;DHT22;28703;44.412;11.918;2023-04-03T07:11:10;12.20;99.90
39315;DHT22;28703;44.412;11.918;2023-04-03T07:13:41;12.30;99.90
39315;DHT22;28703;44.412;11.918;2023-04-03T07:16:07;12.40;99.90
39315;DHT22;28703;44.412;11.918;2023-04-03T07:18:34;12.40;99.90
39315;DHT22;28703;44.412;11.918;2023-04-03T07:21:27;12.50;99.90
39315;DHT22;28703;44.412;11.918;2023-04-03T07:24:02;12.60;99.90
39315;DHT22;28703;44.412;11.918;2023-04-03T07:26:37;12.70;99.90
39315;DHT22;28703;44.412;11.918;2023-04-03T07:29:03;12.80;99.90
39315;DHT22;28703;44.412;11.918;2023-04-03T07:31:29;12.80;99.90
39315;DHT22;28703;44.412;11.918;2023-04-03T07:33:55;12.90;99.90
39315;DHT22;28703;44.412;11.918;2023-04-03T07:36:23;13.00;99.90
39315;DHT22;28703;44.412;11.918;2023-04-03T07:38:49;13.10;99.90
39315;DHT22;28703;44.412;11.918;2023-04-03T07:41:16;13.10;99.90
39315;DHT22;28703;44.412;11.918;2023-04-03T07:43:43;13.10;99.90
39315;DHT22;28703;44.412;11.918;2023-04-03T07:46:09;13.20;99.90
39315;DHT22;28703;44.412;11.918;2023-04-03T07:48:36;13.30;99.90
39315;DHT22;28703;44.412;11.918;2023-04-03T07:51:02;13.40;99.90
39315;DHT22;28703;44.412;11.918;2023-04-03T07:53:31;13.50;99.90
39315;DHT22;28703;44.412;11.918;2023-04-03T07:55:57;13.50;99.90
39315;DHT22;28703;44.412;11.918;2023-04-03T07:58:23;13.60;99.90
39315;DHT22;28703;44.412;11.918;2023-04-03T08:00:50;13.60;99.90
39315;DHT22;28703;44.412;11.918;2023-04-03T08:03:19;13.60;99.90
39315;DHT22;28703;44.412;11.918;2023-04-03T08:05:46;13.70;99.90
39315;DHT22;28703;44.412;11.918;2023-04-03T08:08:13;13.70;99.90
39315;DHT22;28703;44.412;11.918;2023-04-03T08:10:39;13.70;99.90
39315;DHT22;28703;44.412;11.918;2023-04-03T08:13:05;13.70;99.90
39315;DHT22;28703;44.412;11.918;2023-04-03T08:15:31;13.80;99.90
39315;DHT22;28703;44.412;11.918;2023-04-03T08:17:58;13.90;99.90
39315;DHT22;28703;44.412;11.918;2023-04-03T08:20:24;13.90;99.90
39315;DHT22;28703;44.412;11.918;2023-04-03T08:22:50;13.90;99.90
39315;DHT22;28703;44.412;11.918;2023-04-03T08:25:16;14.00;99.90
39315;DHT22;28703;44.412;11.918;2023-04-03T08:27:45;14.00;99.90
39315;DHT22;28703;44.412;11.918;2023-04-03T08:30:12;14.10;99.90
39315;DHT22;28703;44.412;11.918;2023-04-03T08:32:38;14.10;99.90
39315;DHT22;28703;44.412;11.918;2023-04-03T08:35:04;14.20;99.90
39315;DHT22;28703;44.412;11.918;2023-04-03T08:37:31;14.20;99.90
39315;DHT22;28703;44.412;11.918;2023-04-03T08:40:00;14.30;99.90
39315;DHT22;28703;44.412;11.918;2023-04-03T08:45:14;14.50;99.90
39315;DHT22;28703;44.412;11.918;2023-04-03T08:48:03;14.60;99.90
39315;DHT22;28703;44.412;11.918;2023-04-03T08:50:37;14.70;99.90
39315;DHT22;28703;44.412;11.918;2023-04-03T08:53:04;14.80;99.90
39315;DHT22;28703;44.412;11.918;2023-04-03T08:58:25;14.90;99.90
39315;DHT22;28703;44.412;11.918;2023-04-03T09:01:05;15.00;99.90
39315;DHT22;28703;44.412;11.918;2023-04-03T09:03:31;15.00;99.90
39315;DHT22;28703;44.412;11.918;2023-04-03T09:06:03;15.10;99.90
39315;DHT22;28703;44.412;11.918;2023-04-03T09:08:58;15.10;99.90
39315;DHT22;28703;44.412;11.918;2023-04-03T09:11:20;15.10;99.90
39315;DHT22;28703;44.412;11.918;2023-04-03T09:14:01;15.10;99.90
39315;DHT22;28703;44.412;11.918;2023-04-03T09:16:48;15.10;99.60
39315;DHT22;28703;44.412;11.918;2023-04-03T09:22:18;15.20;99.90
39315;DHT22;28703;44.412;11.918;2023-04-03T09:24:43;15.30;98.60
39315;DHT22;28703;44.412;11.918;2023-04-03T09:27:10;15.30;98.60
39315;DHT22;28703;44.412;11.918;2023-04-03T09:29:37;15.30;98.20
39315;DHT22;28703;44.412;11.918;2023-04-03T09:32:15;15.30;98.70
39315;DHT22;28703;44.412;11.918;2023-04-03T09:34:42;15.40;98.00
39315;DHT22;28703;44.412;11.918;2023-04-03T09:37:09;15.40;97.90
39315;DHT22;28703;44.412;11.918;2023-04-03T09:39:52;15.40;97.60
39315;DHT22;28703;44.412;11.918;2023-04-03T09:42:22;15.50;98.00
39315;DHT22;28703;44.412;11.918;2023-04-03T09:44:55;15.50;98.30
39315;DHT22;28703;44.412;11.918;2023-04-03T09:47:34;15.50;97.70
39315;DHT22;28703;44.412;11.918;2023-04-03T09:52:46;15.60;97.60
39315;DHT22;28703;44.412;11.918;2023-04-03T09:55:16;15.60;96.80
39315;DHT22;28703;44.412;11.918;2023-04-03T09:57:43;15.60;97.10
39315;DHT22;28703;44.412;11.918;2023-04-03T10:00:22;15.70;97.10
39315;DHT22;28703;44.412;11.918;2023-04-03T10:02:53;15.70;97.40
39315;DHT22;28703;44.412;11.918;2023-04-03T10:07:51;15.70;97.20
39315;DHT22;28703;44.412;11.918;2023-04-03T10:10:22;15.70;96.90
39315;DHT22;28703;44.412;11.918;2023-04-03T10:13:09;15.80;96.60
39315;DHT22;28703;44.412;11.918;2023-04-03T10:15:38;15.80;96.50
39315;DHT22;28703;44.412;11.918;2023-04-03T10:18:12;15.80;96.50
39315;DHT22;28703;44.412;11.918;2023-04-03T10:20:44;15.80;95.80
39315;DHT22;28703;44.412;11.918;2023-04-03T10:25:48;15.70;95.10
39315;DHT22;28703;44.412;11.918;2023-04-03T10:28:20;15.70;94.60
39315;DHT22;28703;44.412;11.918;2023-04-03T10:41:07;15.70;94.70
39315;DHT22;28703;44.412;11.918;2023-04-03T10:43:36;15.70;94.90
39315;DHT22;28703;44.412;11.918;2023-04-03T10:46:27;15.70;95.00
39315;DHT22;28703;44.412;11.918;2023-04-03T10:54:13;15.70;94.30
39315;DHT22;28703;44.412;11.918;2023-04-03T10:56:51;15.70;93.50
39315;DHT22;28703;44.412;11.918;2023-04-03T11:02:07;15.70;93.50
39315;DHT22;28703;44.412;11.918;2023-04-03T11:04:37;15.70;93.30
39315;DHT22;28703;44.412;11.918;2023-04-03T11:07:17;15.70;93.80
39315;DHT22;28703;44.412;11.918;2023-04-03T11:09:48;15.70;93.70
39315;DHT22;28703;44.412;11.918;2023-04-03T11:12:17;15.70;93.40
39315;DHT22;28703;44.412;11.918;2023-04-03T11:14:44;15.80;93.90
39315;DHT22;28703;44.412;11.918;2023-04-03T11:19:49;15.80;91.70
39315;DHT22;28703;44.412;11.918;2023-04-03T11:22:22;15.80;91.50
39315;DHT22;28703;44.412;11.918;2023-04-03T11:24:52;15.80;91.30
39315;DHT22;28703;44.412;11.918;2023-04-03T11:27:20;15.90;92.80
39315;DHT22;28703;44.412;11.918;2023-04-03T11:29:49;15.90;93.30
39315;DHT22;28703;44.412;11.918;2023-04-03T11:32:38;15.90;92.50
39315;DHT22;28703;44.412;11.918;2023-04-03T11:35:08;15.90;92.60
39315;DHT22;28703;44.412;11.918;2023-04-03T11:37:38;16.00;92.50
39315;DHT22;28703;44.412;11.918;2023-04-03T11:40:19;16.00;93.00
39315;DHT22;28703;44.412;11.918;2023-04-03T11:42:46;16.00;91.20
39315;DHT22;28703;44.412;11.918;2023-04-03T11:45:23;16.00;91.40
39315;DHT22;28703;44.412;11.918;2023-04-03T11:47:54;16.10;91.70
39315;DHT22;28703;44.412;11.918;2023-04-03T11:50:42;16.10;91.50
39315;DHT22;28703;44.412;11.918;2023-04-03T11:58:14;16.20;91.60
39315;DHT22;28703;44.412;11.918;2023-04-03T12:05:52;16.40;91.50
39315;DHT22;28703;44.412;11.918;2023-04-03T12:13:31;16.50;90.70
39315;DHT22;28703;44.412;11.918;2023-04-03T12:15:57;16.50;91.30
39315;DHT22;28703;44.412;11.918;2023-04-03T12:21:10;16.60;92.10
39315;DHT22;28703;44.412;11.918;2023-04-03T12:23:37;16.70;91.10
39315;DHT22;28703;44.412;11.918;2023-04-03T12:26:22;16.70;91.60
39315;DHT22;28703;44.412;11.918;2023-04-03T12:28:48;16.70;91.30
39315;DHT22;28703;44.412;11.918;2023-04-03T12:31:16;16.80;91.80
39315;DHT22;28703;44.412;11.918;2023-04-03T12:34:17;16.90;91.40
39315;DHT22;28703;44.412;11.918;2023-04-03T12:37:00;16.90;90.70
39315;DHT22;28703;44.412;11.918;2023-04-03T12:41:50;17.10;90.90
39315;DHT22;28703;44.412;11.918;2023-04-03T12:44:33;17.20;90.20
39315;DHT22;28703;44.412;11.918;2023-04-03T12:47:00;17.20;89.70
39315;DHT22;28703;44.412;11.918;2023-04-03T12:49:35;17.20;90.10
39315;DHT22;28703;44.412;11.918;2023-04-03T12:52:03;17.30;90.30
39315;DHT22;28703;44.412;11.918;2023-04-03T12:54:40;17.40;90.30
39315;DHT22;28703;44.412;11.918;2023-04-03T12:59:36;17.60;90.60
39315;DHT22;28703;44.412;11.918;2023-04-03T13:02:02;17.60;90.50
39315;DHT22;28703;44.412;11.918;2023-04-03T13:04:28;17.70;90.60
39315;DHT22;28703;44.412;11.918;2023-04-03T13:06:55;17.90;90.50
39315;DHT22;28703;44.412;11.918;2023-04-03T13:09:23;18.00;89.90
39315;DHT22;28703;44.412;11.918;2023-04-03T13:11:52;18.10;89.60
39315;DHT22;28703;44.412;11.918;2023-04-03T13:14:21;18.30;90.10
39315;DHT22;28703;44.412;11.918;2023-04-03T13:17:20;18.40;89.20
39315;DHT22;28703;44.412;11.918;2023-04-03T13:19:39;18.50;89.10
39315;DHT22;28703;44.412;11.918;2023-04-03T13:24:51;18.90;88.50
39315;DHT22;28703;44.412;11.918;2023-04-03T13:27:18;18.90;87.90
39315;DHT22;28703;44.412;11.918;2023-04-03T13:29:48;19.10;88.20
39315;DHT22;28703;44.412;11.918;2023-04-03T13:32:33;19.20;86.10
39315;DHT22;28703;44.412;11.918;2023-04-03T13:34:59;19.20;87.70
39315;DHT22;28703;44.412;11.918;2023-04-03T13:37:29;19.30;87.30
39315;DHT22;28703;44.412;11.918;2023-04-03T13:42:28;19.50;86.90
39315;DHT22;28703;44.412;11.918;2023-04-03T13:47:39;19.70;85.90
39315;DHT22;28703;44.412;11.918;2023-04-03T13:52:48;19.90;83.30
39315;DHT22;28703;44.412;11.918;2023-04-03T13:55:24;20.00;83.90
39315;DHT22;28703;44.412;11.918;2023-04-03T14:00:30;20.10;81.70
39315;DHT22;28703;44.412;11.918;2023-04-03T14:02:56;20.20;82.10
39315;DHT22;28703;44.412;11.918;2023-04-03T14:05:23;20.30;82.20
39315;DHT22;28703;44.412;11.918;2023-04-03T14:07:50;20.30;82.60
39315;DHT22;28703;44.412;11.918;2023-04-03T14:10:16;20.40;83.10
39315;DHT22;28703;44.412;11.918;2023-04-03T14:12:42;20.40;81.60
39315;DHT22;28703;44.412;11.918;2023-04-03T14:15:18;20.50;82.30
39315;DHT22;28703;44.412;11.918;2023-04-03T14:17:45;20.60;81.70
39315;DHT22;28703;44.412;11.918;2023-04-03T14:20:15;20.70;82.30
39315;DHT22;28703;44.412;11.918;2023-04-03T14:22:41;20.80;81.70
39315;DHT22;28703;44.412;11.918;2023-04-03T14:25:08;20.90;82.30
39315;DHT22;28703;44.412;11.918;2023-04-03T14:27:36;21.00;80.70
39315;DHT22;28703;44.412;11.918;2023-04-03T14:30:03;21.10;81.20
39315;DHT22;28703;44.412;11.918;2023-04-03T14:32:30;21.20;81.60
39315;DHT22;28703;44.412;11.918;2023-04-03T14:34:56;21.30;81.90
39315;DHT22;28703;44.412;11.918;2023-04-03T14:37:23;21.40;81.40
39315;DHT22;28703;44.412;11.918;2023-04-03T14:39:50;21.60;80.90
39315;DHT22;28703;44.412;11.918;2023-04-03T14:42:17;21.70;80.30
39315;DHT22;28703;44.412;11.918;2023-04-03T14:44:43;21.80;80.10
39315;DHT22;28703;44.412;11.918;2023-04-03T14:47:12;21.90;79.10
39315;DHT22;28703;44.412;11.918;2023-04-03T14:49:39;21.90;78.60
39315;DHT22;28703;44.412;11.918;2023-04-03T14:52:05;22.00;78.90
39315;DHT22;28703;44.412;11.918;2023-04-03T14:54:31;22.10;79.10
39315;DHT22;28703;44.412;11.918;2023-04-03T14:56:58;22.20;79.00
39315;DHT22;28703;44.412;11.918;2023-04-03T14:59:24;22.30;78.10
39315;DHT22;28703;44.412;11.918;2023-04-03T15:01:50;22.40;78.40
39315;DHT22;28703;44.412;11.918;2023-04-03T15:04:17;22.50;78.10
39315;DHT22;28703;44.412;11.918;2023-04-03T15:06:44;22.60;77.40
39315;DHT22;28703;44.412;11.918;2023-04-03T15:09:19;22.70;76.60
39315;DHT22;28703;44.412;11.918;2023-04-03T15:11:46;22.90;75.70
39315;DHT22;28703;44.412;11.918;2023-04-03T15:14:11;23.00;75.30
39315;DHT22;28703;44.412;11.918;2023-04-03T15:16:37;23.10;75.80
39315;DHT22;28703;44.412;11.918;2023-04-03T15:19:04;23.30;76.00
39315;DHT22;28703;44.412;11.918;2023-04-03T15:21:30;23.50;75.90
39315;DHT22;28703;44.412;11.918;2023-04-03T15:23:55;23.70;76.00
39315;DHT22;28703;44.412;11.918;2023-04-03T15:26:21;23.90;75.80
39315;DHT22;28703;44.412;11.918;2023-04-03T15:28:47;24.10;76.20
39315;DHT22;28703;44.412;11.918;2023-04-03T15:31:13;24.30;74.90
39315;DHT22;28703;44.412;11.918;2023-04-03T15:33:38;24.50;75.40
39315;DHT22;28703;44.412;11.918;2023-04-03T15:36:05;24.60;73.60
39315;DHT22;28703;44.412;11.918;2023-04-03T15:38:31;24.80;74.90
39315;DHT22;28703;44.412;11.918;2023-04-03T15:40:57;25.00;74.00
39315;DHT22;28703;44.412;11.918;2023-04-03T15:43:22;25.20;73.60
39315;DHT22;28703;44.412;11.918;2023-04-03T15:45:48;25.30;73.20
39315;DHT22;28703;44.412;11.918;2023-04-03T15:48:14;25.50;72.50
39315;DHT22;28703;44.412;11.918;2023-04-03T15:50:40;25.70;71.80
39315;DHT22;28703;44.412;11.918;2023-04-03T15:53:06;25.90;71.30
39315;DHT22;28703;44.412;11.918;2023-04-03T15:55:33;26.20;72.10
39315;DHT22;28703;44.412;11.918;2023-04-03T15:58:00;26.40;71.30
39315;DHT22;28703;44.412;11.918;2023-04-03T16:00:27;26.60;70.70
39315;DHT22;28703;44.412;11.918;2023-04-03T16:02:55;26.90;70.20
39315;DHT22;28703;44.412;11.918;2023-04-03T16:07:59;27.80;69.30
39315;DHT22;28703;44.412;11.918;2023-04-03T16:10:25;28.30;69.30
39315;DHT22;28703;44.412;11.918;2023-04-03T16:12:52;28.90;69.10
39315;DHT22;28703;44.412;11.918;2023-04-03T16:15:19;29.40;68.20
39315;DHT22;28703;44.412;11.918;2023-04-03T16:17:45;29.80;66.90
39315;DHT22;28703;44.412;11.918;2023-04-03T16:20:13;30.20;65.80
39315;DHT22;28703;44.412;11.918;2023-04-03T16:22:39;30.40;65.80
39315;DHT22;28703;44.412;11.918;2023-04-03T16:25:06;30.70;65.70
39315;DHT22;28703;44.412;11.918;2023-04-03T16:27:32;31.00;65.30
39315;DHT22;28703;44.412;11.918;2023-04-03T16:30:01;31.30;64.60
39315;DHT22;28703;44.412;11.918;2023-04-03T16:32:28;31.50;63.50
39315;DHT22;28703;44.412;11.918;2023-04-03T16:34:58;31.70;62.70
39315;DHT22;28703;44.412;11.918;2023-04-03T16:37:24;31.70;61.80
39315;DHT22;28703;44.412;11.918;2023-04-03T16:39:50;31.80;61.40
39315;DHT22;28703;44.412;11.918;2023-04-03T16:42:16;31.90;60.80
39315;DHT22;28703;44.412;11.918;2023-04-03T16:44:42;31.90;60.10
39315;DHT22;28703;44.412;11.918;2023-04-03T16:47:08;31.90;60.60
39315;DHT22;28703;44.412;11.918;2023-04-03T16:49:34;31.70;59.80
39315;DHT22;28703;44.412;11.918;2023-04-03T16:52:00;31.70;59.40
39315;DHT22;28703;44.412;11.918;2023-04-03T16:54:26;31.50;59.20